createdAt,value
2024-05-09T00:01:28.434Z,2.84
2024-05-09T00:03:58.313Z,2.94
2024-05-09T00:06:28.237Z,2.91
2024-05-09T00:08:58.011Z,2.95
2024-05-09T00:11:27.885Z,2.96
2024-05-09T00:14:00.556Z,3.02
2024-05-09T00:16:30.345Z,2.89
2024-05-09T00:19:00.323Z,2.86
2024-05-09T00:21:30.928Z,2.79
2024-05-09T00:24:00.714Z,2.76
2024-05-09T00:26:30.569Z,2.75
2024-05-09T00:29:03.194Z,2.76
2024-05-09T00:31:33.049Z,2.79
2024-05-09T00:34:02.983Z,2.79
2024-05-09T00:36:32.951Z,2.88
2024-05-09T00:39:02.731Z,2.84
2024-05-09T00:41:32.521Z,2.81
2024-05-09T00:44:05.350Z,2.79
2024-05-09T00:46:35.380Z,2.80
2024-05-09T00:49:05.690Z,2.72
2024-05-09T00:51:35.604Z,2.78
2024-05-09T00:54:05.661Z,2.83
2024-05-09T00:56:38.198Z,2.73
2024-05-09T00:59:10.961Z,2.89
2024-05-09T01:01:40.972Z,2.79
2024-05-09T01:04:11.520Z,2.75
2024-05-09T01:06:41.505Z,2.78
2024-05-09T01:09:11.379Z,2.70
2024-05-09T01:11:41.798Z,2.68
2024-05-09T01:14:14.313Z,2.59
2024-05-09T01:16:44.777Z,2.56
2024-05-09T01:19:22.387Z,2.59
2024-05-09T01:21:52.291Z,2.62
2024-05-09T01:24:24.724Z,2.52
2024-05-09T01:26:54.595Z,2.45
2024-05-09T01:29:24.533Z,2.56
2024-05-09T01:31:55.110Z,2.55
2024-05-09T01:34:24.967Z,2.57
2024-05-09T01:36:54.767Z,2.57
2024-05-09T01:39:27.458Z,2.61
2024-05-09T01:41:57.251Z,2.60
2024-05-09T01:44:27.077Z,2.64
2024-05-09T01:46:56.940Z,2.55
2024-05-09T01:49:27.065Z,2.51
2024-05-09T01:51:56.905Z,2.49
2024-05-09T01:54:29.395Z,2.51
2024-05-09T01:56:59.166Z,2.53
2024-05-09T01:59:29.029Z,2.46
2024-05-09T02:01:59.010Z,2.51
2024-05-09T02:04:30.699Z,2.52
2024-05-09T02:07:00.593Z,2.53
2024-05-09T02:09:33.004Z,2.43
2024-05-09T02:12:02.964Z,2.55
2024-05-09T02:14:32.920Z,2.65
2024-05-09T02:17:02.766Z,2.70
2024-05-09T02:19:32.984Z,2.65
2024-05-09T02:22:02.905Z,2.52
2024-05-09T02:24:35.372Z,2.51
2024-05-09T02:27:05.190Z,2.61
2024-05-09T02:29:35.026Z,2.71
2024-05-09T02:32:04.951Z,2.68
2024-05-09T02:34:34.915Z,2.67
2024-05-09T02:37:04.735Z,2.67
2024-05-09T02:39:34.777Z,2.73
2024-05-09T02:42:04.589Z,2.59
2024-05-09T02:44:31.919Z,2.70
2024-05-09T02:47:01.754Z,2.74
2024-05-09T02:49:29.135Z,2.75
2024-05-09T02:51:59.030Z,2.73
2024-05-09T02:54:26.317Z,2.82
2024-05-09T02:56:58.775Z,2.87
2024-05-09T02:59:26.154Z,2.94
2024-05-09T03:01:56.141Z,2.90
2024-05-09T03:04:23.380Z,2.91
2024-05-09T03:06:53.187Z,2.93
2024-05-09T03:09:21.673Z,2.89
2024-05-09T03:11:51.648Z,2.91
2024-05-09T03:14:21.709Z,2.99
2024-05-09T03:16:51.614Z,2.95
2024-05-09T03:19:18.961Z,2.97
2024-05-09T03:21:48.751Z,2.94
2024-05-09T03:24:15.833Z,2.92
2024-05-09T03:26:45.833Z,2.91
2024-05-09T03:29:13.025Z,2.91
2024-05-09T03:31:45.585Z,3.00
2024-05-09T03:34:12.753Z,2.97
2024-05-09T03:36:44.618Z,3.06
2024-05-09T03:39:14.749Z,2.92
2024-05-09T03:41:44.577Z,3.03
2024-05-09T03:44:11.838Z,2.98
2024-05-09T03:46:41.890Z,2.60
2024-05-09T03:49:11.863Z,2.82
2024-05-09T03:51:41.756Z,2.90
2024-05-09T03:54:08.853Z,2.95
2024-05-09T03:56:38.765Z,3.15
2024-05-09T03:59:05.996Z,3.22
2024-05-09T04:01:35.923Z,3.18
2024-05-09T04:04:03.186Z,3.13
2024-05-09T04:06:35.650Z,3.11
2024-05-09T04:09:02.768Z,3.17
2024-05-09T04:11:33.751Z,3.14
2024-05-09T04:14:01.028Z,3.19
2024-05-09T04:16:30.902Z,3.21
2024-05-09T04:18:58.102Z,3.22
2024-05-09T04:21:27.892Z,3.03
2024-05-09T04:23:57.751Z,3.26
2024-05-09T04:26:27.607Z,3.35
2024-05-09T04:28:54.863Z,3.39
2024-05-09T04:31:24.650Z,3.38
2024-05-09T04:33:51.877Z,2.99
2024-05-09T04:36:21.853Z,3.28
2024-05-09T04:38:48.943Z,3.38
2024-05-09T04:41:21.386Z,3.33
2024-05-09T04:43:51.046Z,3.05
2024-05-09T04:46:20.859Z,3.29
2024-05-09T04:48:48.968Z,3.44
2024-05-09T04:51:18.912Z,3.52
2024-05-09T04:53:46.282Z,3.42
2024-05-09T04:56:16.171Z,3.51
2024-05-09T04:58:45.984Z,3.37
2024-05-09T05:01:16.219Z,3.24
2024-05-09T05:03:43.602Z,3.45
2024-05-09T05:06:13.599Z,3.47
2024-05-09T05:08:40.806Z,3.41
2024-05-09T05:11:10.697Z,3.51
2024-05-09T05:13:40.972Z,3.45
2024-05-09T05:16:14.132Z,3.39
2024-05-09T05:18:41.437Z,3.12
2024-05-09T05:21:11.324Z,2.82
2024-05-09T05:23:38.698Z,3.08
2024-05-09T05:26:08.650Z,3.07
2024-05-09T05:28:35.828Z,3.16
2024-05-09T05:31:05.648Z,3.45
2024-05-09T05:33:35.565Z,3.44
2024-05-09T05:36:05.537Z,3.52
2024-05-09T05:38:32.814Z,3.57
2024-05-09T05:41:02.681Z,3.23
2024-05-09T05:43:29.831Z,3.18
2024-05-09T05:45:59.719Z,3.08
2024-05-09T05:48:27.101Z,2.88
2024-05-09T05:51:02.685Z,2.97
2024-05-09T05:53:31.512Z,3.07
2024-05-09T05:56:01.578Z,2.84
2024-05-09T05:58:28.791Z,2.90
2024-05-09T06:00:58.729Z,3.15
2024-05-09T06:03:26.009Z,3.39
2024-05-09T06:05:55.849Z,3.60
2024-05-09T06:08:28.006Z,3.44
2024-05-09T06:10:59.819Z,3.65
2024-05-09T06:13:27.044Z,3.66
2024-05-09T06:15:56.824Z,3.51
2024-05-09T06:18:24.425Z,3.68
2024-05-09T06:20:55.058Z,3.64
2024-05-09T06:23:22.384Z,3.49
2024-05-09T06:25:55.237Z,3.33
2024-05-09T06:28:22.389Z,3.24
2024-05-09T06:30:52.170Z,3.37
2024-05-09T06:33:19.612Z,3.49
2024-05-09T06:35:49.549Z,3.73
2024-05-09T06:38:16.811Z,3.82
2024-05-09T06:40:46.731Z,4.00
2024-05-09T06:43:18.948Z,4.06
2024-05-09T06:45:49.733Z,4.00
2024-05-09T06:48:18.816Z,3.93
2024-05-09T06:50:49.128Z,3.88
2024-05-09T06:53:17.483Z,3.51
2024-05-09T06:55:47.555Z,3.67
2024-05-09T06:58:17.437Z,3.96
2024-05-09T07:00:47.543Z,3.99
2024-05-09T07:03:17.924Z,4.01
2024-05-09T07:05:49.964Z,3.87
2024-05-09T07:08:17.613Z,4.06
2024-05-09T07:10:47.998Z,3.92
2024-05-09T07:13:18.120Z,3.99
2024-05-09T07:15:47.987Z,3.92
2024-05-09T07:18:17.843Z,4.11
2024-05-09T07:20:50.127Z,4.24
2024-05-09T07:23:18.430Z,4.17
2024-05-09T07:25:48.714Z,4.37
2024-05-09T07:28:20.695Z,4.26
2024-05-09T07:30:50.598Z,4.30
2024-05-09T07:33:18.385Z,4.35
2024-05-09T07:35:48.783Z,4.60
2024-05-09T07:38:15.997Z,4.60
2024-05-09T07:40:46.128Z,4.77
2024-05-09T07:43:14.619Z,5.04
2024-05-09T07:45:53.389Z,5.13
2024-05-09T07:52:39.256Z,4.49
2024-05-09T07:53:47.392Z,5.00
2024-05-09T07:56:23.057Z,4.82
2024-05-09T07:58:52.316Z,5.06
2024-05-09T08:01:26.492Z,5.00
2024-05-09T08:03:56.951Z,5.15
2024-05-09T08:06:24.774Z,5.39
2024-05-09T08:08:54.647Z,5.59
2024-05-09T08:11:21.796Z,5.71
2024-05-09T08:13:51.621Z,5.91
2024-05-09T08:16:21.699Z,5.89
2024-05-09T08:18:51.910Z,5.79
2024-05-09T08:21:19.607Z,5.57
2024-05-09T08:23:49.436Z,5.51
2024-05-09T08:26:16.546Z,5.58
2024-05-09T08:28:46.349Z,5.76
2024-05-09T08:31:13.686Z,5.35
2024-05-09T08:33:51.354Z,5.75
2024-05-09T08:36:18.673Z,5.98
2024-05-09T08:38:48.666Z,6.21
2024-05-09T08:41:15.750Z,6.31
2024-05-09T08:43:47.192Z,6.38
2024-05-09T08:46:14.597Z,6.45
2024-05-09T08:48:49.352Z,6.10
2024-05-09T08:51:16.587Z,5.60
2024-05-09T08:53:46.484Z,5.79
2024-05-09T08:56:15.071Z,6.00
2024-05-09T08:58:45.494Z,5.84
2024-05-09T09:01:14.477Z,5.94
2024-05-09T09:03:45.293Z,5.90
2024-05-09T09:06:21.126Z,5.52
2024-05-09T09:08:51.909Z,5.98
2024-05-09T09:11:19.127Z,5.59
2024-05-09T09:13:48.920Z,5.45
2024-05-09T09:16:16.539Z,5.64
2024-05-09T09:18:47.234Z,5.65
2024-05-09T09:21:18.051Z,5.97
2024-05-09T09:23:47.835Z,6.25
2024-05-09T09:26:16.799Z,6.56
2024-05-09T09:28:47.507Z,6.21
2024-05-09T09:31:18.198Z,6.56
2024-05-09T09:33:48.490Z,6.76
2024-05-09T09:36:19.104Z,6.29
2024-05-09T09:38:51.056Z,6.32
2024-05-09T09:41:19.999Z,6.67
2024-05-09T09:43:50.574Z,6.56
2024-05-09T09:46:19.635Z,7.04
2024-05-09T09:48:50.897Z,7.34
2024-05-09T09:51:22.666Z,7.71
2024-05-09T09:53:55.708Z,7.94
2024-05-09T09:56:24.115Z,8.05
2024-05-09T09:58:55.993Z,7.87
2024-05-09T10:01:23.307Z,7.44
2024-05-09T10:03:53.358Z,7.38
2024-05-09T10:06:23.985Z,7.69
2024-05-09T10:08:54.464Z,7.30
2024-05-09T10:11:22.365Z,7.60
2024-05-09T10:13:55.096Z,7.58
2024-05-09T10:16:22.545Z,7.28
2024-05-09T10:18:52.659Z,7.48
2024-05-09T10:21:23.374Z,7.20
2024-05-09T10:24:00.690Z,7.39
2024-05-09T10:26:32.363Z,6.88
2024-05-09T10:29:03.480Z,6.84
2024-05-09T10:31:30.910Z,6.90
2024-05-09T10:34:03.381Z,7.13
2024-05-09T10:36:33.475Z,7.25
2024-05-09T10:39:03.301Z,7.24
2024-05-09T10:41:30.445Z,7.28
2024-05-09T10:44:00.205Z,7.49
2024-05-09T10:46:27.426Z,6.90
2024-05-09T10:48:57.451Z,7.23
2024-05-09T10:51:24.985Z,6.81
2024-05-09T10:53:58.713Z,7.32
2024-05-09T10:56:26.266Z,7.50
2024-05-09T10:58:56.054Z,7.50
2024-05-09T11:01:23.570Z,7.48
2024-05-09T11:03:53.801Z,7.28
2024-05-09T11:06:21.114Z,7.17
2024-05-09T11:08:51.525Z,7.32
2024-05-09T11:11:21.501Z,7.30
2024-05-09T11:13:51.416Z,7.02
2024-05-09T11:16:20.181Z,6.93
2024-05-09T11:18:58.828Z,6.98
2024-05-09T11:21:26.946Z,6.96
2024-05-09T11:23:57.182Z,6.39
2024-05-09T11:26:29.691Z,6.26
2024-05-09T11:28:59.560Z,6.36
2024-05-09T11:31:27.004Z,6.30
2024-05-09T11:33:57.342Z,6.23
2024-05-09T11:36:24.650Z,6.57
2024-05-09T11:38:54.481Z,6.61
2024-05-09T11:41:21.628Z,6.69
2024-05-09T11:43:54.066Z,6.68
2024-05-09T11:46:21.536Z,6.56
2024-05-09T11:48:51.692Z,6.44
2024-05-09T11:51:19.011Z,6.45
2024-05-09T11:53:48.823Z,6.46
2024-05-09T11:56:17.552Z,6.49
2024-05-09T11:58:49.331Z,6.53
2024-05-09T12:01:20.322Z,6.67
2024-05-09T12:03:51.882Z,6.89
2024-05-09T12:06:19.209Z,6.86
2024-05-09T12:08:49.423Z,6.64
2024-05-09T12:11:16.930Z,6.17
2024-05-09T12:13:46.767Z,6.02
2024-05-09T12:16:14.184Z,5.83
2024-05-09T12:18:46.931Z,6.00
2024-05-09T12:21:17.168Z,6.25
2024-05-09T12:23:46.944Z,6.14
2024-05-09T12:26:15.944Z,6.17
2024-05-09T12:28:46.070Z,6.46
2024-05-09T12:31:13.242Z,6.36
2024-05-09T12:33:43.172Z,6.72
2024-05-09T12:36:13.168Z,6.73
2024-05-09T12:38:42.933Z,6.79
2024-05-09T12:41:10.626Z,6.73
2024-05-09T12:43:40.394Z,6.81
2024-05-09T12:46:07.616Z,6.81
2024-05-09T12:48:37.689Z,6.89
2024-05-09T12:51:06.118Z,6.65
2024-05-09T12:53:39.225Z,6.45
2024-05-09T12:56:09.378Z,6.84
2024-05-09T12:58:39.659Z,6.42
2024-05-09T13:01:06.924Z,6.46
2024-05-09T13:03:37.021Z,6.64
2024-05-09T13:06:04.620Z,6.90
2024-05-09T13:08:34.613Z,6.94
2024-05-09T13:11:04.709Z,6.93
2024-05-09T13:13:34.463Z,6.93
2024-05-09T13:16:01.837Z,6.91
2024-05-09T13:18:33.587Z,6.89
2024-05-09T13:21:00.861Z,6.81
2024-05-09T13:23:30.704Z,6.86
2024-05-09T13:25:57.840Z,6.96
2024-05-09T13:28:32.358Z,7.02
2024-05-09T13:30:59.579Z,7.00
2024-05-09T13:33:29.601Z,6.84
2024-05-09T13:35:57.067Z,6.77
2024-05-09T13:38:26.935Z,6.95
2024-05-09T13:40:54.230Z,6.68
2024-05-09T13:43:25.630Z,6.85
2024-05-09T13:45:56.471Z,6.92
2024-05-09T13:48:26.650Z,7.07
2024-05-09T13:50:53.875Z,6.98
2024-05-09T13:53:25.235Z,7.12
2024-05-09T13:55:52.406Z,7.10
2024-05-09T13:58:23.616Z,6.94
2024-05-09T14:00:51.134Z,6.86
2024-05-09T14:03:24.742Z,6.87
2024-05-09T14:05:52.406Z,7.01
2024-05-09T14:08:23.103Z,6.93
2024-05-09T14:10:50.999Z,6.86
2024-05-09T14:13:21.045Z,6.69
2024-05-09T14:15:48.651Z,6.75
2024-05-09T14:18:18.675Z,6.36
2024-05-09T14:20:48.554Z,6.10
2024-05-09T14:23:20.580Z,6.11
2024-05-09T14:25:51.300Z,6.31
2024-05-09T14:28:22.725Z,6.24
2024-05-09T14:30:50.139Z,6.05
2024-05-09T14:33:25.571Z,5.57
2024-05-09T14:35:55.663Z,5.95
2024-05-09T14:38:26.514Z,5.85
2024-05-09T14:40:54.010Z,5.95
2024-05-09T14:43:24.077Z,6.09
2024-05-09T14:45:51.380Z,5.92
2024-05-09T14:48:22.269Z,5.92
2024-05-09T14:50:49.495Z,5.83
2024-05-09T14:53:23.739Z,5.78
2024-05-09T14:55:51.023Z,5.66
2024-05-09T14:58:20.940Z,5.64
2024-05-09T15:00:50.967Z,5.47
2024-05-09T15:03:22.410Z,5.58
2024-05-09T15:05:50.578Z,5.57
2024-05-09T15:08:23.532Z,5.54
2024-05-09T15:10:51.025Z,5.47
2024-05-09T15:13:21.535Z,5.35
2024-05-09T15:15:49.225Z,5.20
2024-05-09T15:18:19.648Z,5.11
2024-05-09T15:20:47.333Z,4.87
2024-05-09T15:23:17.377Z,4.82
2024-05-09T15:25:47.216Z,4.96
2024-05-09T15:28:17.237Z,4.98
2024-05-09T15:30:46.564Z,5.03
2024-05-09T15:33:17.205Z,4.96
2024-05-09T15:35:46.776Z,4.83
2024-05-09T15:38:18.565Z,4.72
2024-05-09T15:40:48.855Z,4.54
2024-05-09T15:43:18.795Z,4.66
2024-05-09T15:45:46.041Z,4.61
2024-05-09T15:48:16.385Z,4.58
2024-05-09T15:50:43.730Z,4.52
2024-05-09T15:53:14.426Z,4.62
2024-05-09T15:55:42.402Z,4.54
2024-05-09T15:58:15.942Z,4.54
2024-05-09T16:00:45.052Z,4.49
2024-05-09T16:03:16.331Z,4.46
2024-05-09T16:05:44.665Z,4.44
2024-05-09T16:08:15.337Z,4.34
2024-05-09T16:10:46.029Z,4.19
2024-05-09T16:13:19.848Z,4.15
2024-05-09T16:15:47.497Z,4.10
2024-05-09T16:18:17.595Z,4.04
2024-05-09T16:20:47.221Z,3.93
2024-05-09T16:23:19.152Z,4.15
2024-05-09T16:25:48.039Z,4.04
2024-05-09T16:28:22.902Z,3.87
2024-05-09T16:30:51.140Z,3.85
2024-05-09T16:33:23.966Z,3.79
2024-05-09T16:35:51.464Z,3.89
2024-05-09T16:38:21.341Z,4.05
2024-05-09T16:40:48.609Z,4.11
2024-05-09T16:43:22.379Z,3.90
2024-05-09T16:45:51.314Z,3.81
2024-05-09T16:48:21.292Z,3.93
2024-05-09T16:50:49.063Z,4.00
2024-05-09T16:53:19.205Z,3.60
2024-05-09T16:55:46.353Z,3.63
2024-05-09T16:58:16.619Z,3.75
2024-05-09T17:00:46.881Z,3.73
2024-05-09T17:03:17.043Z,3.83
2024-05-09T17:05:46.690Z,3.85
2024-05-09T17:08:18.643Z,3.83
2024-05-09T17:10:46.246Z,3.87
2024-05-09T17:13:16.750Z,3.90
2024-05-09T17:15:50.492Z,3.91
2024-05-09T17:18:21.109Z,3.95
2024-05-09T17:20:52.571Z,4.06
2024-05-09T17:23:19.848Z,4.11
2024-05-09T17:25:49.825Z,4.05
2024-05-09T17:28:17.172Z,3.88
2024-05-09T17:30:49.859Z,3.91
2024-05-09T17:33:17.235Z,4.01
2024-05-09T17:35:50.825Z,3.99
2024-05-09T17:38:18.608Z,3.98
2024-05-09T17:40:48.618Z,3.94
2024-05-09T17:43:15.927Z,3.98
2024-05-09T17:45:45.993Z,3.97
2024-05-09T17:50:46.959Z,3.93
2024-05-09T17:53:14.145Z,3.90
2024-05-09T17:55:43.990Z,3.95
2024-05-09T17:58:12.999Z,3.70
2024-05-09T18:00:43.081Z,3.92
2024-05-09T18:03:12.421Z,3.71
2024-05-09T18:05:46.152Z,3.94
2024-05-09T18:08:13.851Z,3.88
2024-05-09T18:10:44.440Z,3.93
2024-05-09T18:13:13.257Z,3.83
2024-05-09T18:15:45.442Z,3.85
2024-05-09T18:18:13.498Z,3.83
2024-05-09T18:20:46.638Z,3.83
2024-05-09T18:23:16.441Z,3.83
2024-05-09T18:25:48.260Z,3.90
2024-05-09T18:28:16.810Z,3.86
2024-05-09T18:30:47.313Z,3.70
2024-05-09T18:33:14.940Z,3.76
2024-05-09T18:35:48.908Z,3.79
2024-05-09T18:38:16.245Z,3.71
2024-05-09T18:40:48.865Z,3.82
2024-05-09T18:43:17.158Z,3.81
2024-05-09T18:45:47.688Z,3.80
2024-05-09T18:48:15.500Z,3.79
2024-05-09T18:50:48.248Z,3.70
2024-05-09T18:53:16.256Z,3.76
2024-05-09T18:55:46.056Z,3.65
2024-05-09T18:58:13.425Z,3.39
2024-05-09T19:00:45.930Z,3.59
2024-05-09T19:03:16.230Z,3.65
2024-05-09T19:05:49.049Z,3.65
2024-05-09T19:08:16.337Z,3.68
2024-05-09T19:10:46.688Z,3.63
2024-05-09T19:13:14.646Z,3.69
2024-05-09T19:15:45.155Z,3.76
2024-05-09T19:18:14.110Z,3.77
2024-05-09T19:20:44.704Z,3.61
2024-05-09T19:23:14.732Z,3.72
2024-05-09T19:25:44.552Z,3.70
2024-05-09T19:28:11.720Z,3.70
2024-05-09T19:30:42.856Z,3.37
2024-05-09T19:33:12.859Z,3.32
2024-05-09T19:35:43.892Z,3.32
2024-05-09T19:38:11.838Z,3.31
2024-05-09T19:40:44.424Z,3.39
2024-05-09T19:43:11.731Z,3.30
2024-05-09T19:45:41.611Z,3.17
2024-05-09T19:48:09.129Z,3.23
2024-05-09T19:50:43.203Z,3.25
2024-05-09T19:53:12.357Z,3.14
2024-05-09T19:55:45.310Z,3.15
2024-05-09T19:58:13.113Z,3.26
2024-05-09T20:00:44.360Z,3.21
2024-05-09T20:03:13.447Z,3.26
2024-05-09T20:05:45.535Z,2.98
2024-05-09T20:08:13.462Z,3.18
2024-05-09T20:10:45.974Z,3.25
2024-05-09T20:13:14.084Z,3.13
2024-05-09T20:15:44.045Z,2.95
2024-05-09T20:18:11.431Z,2.94
2024-05-09T20:20:43.861Z,2.87
2024-05-09T20:23:12.656Z,2.80
2024-05-09T20:25:45.506Z,2.77
2024-05-09T20:28:12.778Z,2.69
2024-05-09T20:30:42.860Z,2.68
2024-05-09T20:33:10.621Z,2.71
2024-05-09T20:35:40.694Z,2.72
2024-05-09T20:38:08.052Z,2.52
2024-05-09T20:40:39.417Z,2.63
2024-05-09T20:43:10.474Z,2.60
2024-05-09T20:45:40.978Z,2.49
2024-05-09T20:48:09.569Z,2.43
2024-05-09T20:50:42.040Z,2.28
2024-05-09T20:53:11.378Z,2.17
2024-05-09T20:55:41.704Z,2.09
2024-05-09T20:58:11.988Z,2.10
2024-05-09T21:00:44.774Z,2.06
2024-05-09T21:03:14.874Z,2.07
2024-05-09T21:05:46.970Z,2.06
2024-05-09T21:08:14.649Z,2.06
2024-05-09T21:10:44.676Z,1.93
2024-05-09T21:13:14.649Z,1.84
2024-05-09T21:15:44.614Z,1.57
2024-05-09T21:18:11.973Z,1.56
2024-05-09T21:20:41.797Z,1.44
2024-05-09T21:23:08.982Z,1.35
2024-05-09T21:25:38.875Z,1.30
2024-05-09T21:28:06.392Z,1.21
2024-05-09T21:30:42.503Z,1.02
2024-05-09T21:33:12.654Z,0.96
2024-05-09T21:35:44.716Z,0.81
2024-05-09T21:38:14.000Z,0.78
2024-05-09T21:40:44.760Z,0.83
2024-05-09T21:43:12.427Z,0.82
2024-05-09T21:45:45.230Z,0.84
2024-05-09T21:48:13.360Z,0.90
2024-05-09T21:50:43.343Z,0.93
2024-05-09T21:53:11.546Z,1.01
2024-05-09T21:55:41.886Z,1.01
2024-05-09T21:58:09.048Z,1.01
2024-05-09T22:00:40.754Z,0.95
2024-05-09T22:03:12.161Z,0.95
2024-05-09T22:05:44.575Z,0.90
2024-05-09T22:08:12.735Z,0.95
2024-05-09T22:10:42.701Z,0.91
2024-05-09T22:13:10.076Z,0.80
2024-05-09T22:15:41.173Z,0.88
2024-05-09T22:18:12.062Z,0.94
2024-05-09T22:20:45.803Z,1.00
2024-05-09T22:23:14.897Z,0.97
2024-05-09T22:25:45.220Z,1.09
2024-05-09T22:28:15.593Z,1.28
2024-05-09T22:30:47.298Z,1.27
2024-05-09T22:33:17.808Z,1.32
2024-05-09T22:35:48.181Z,1.36
2024-05-09T22:38:15.464Z,1.42
2024-05-09T22:40:48.727Z,1.55
2024-05-09T22:43:19.546Z,1.50
2024-05-09T22:45:50.240Z,1.54
2024-05-09T22:48:20.696Z,1.56
2024-05-09T22:50:50.571Z,1.54
2024-05-09T22:53:19.000Z,1.50
2024-05-09T22:55:48.851Z,1.51
2024-05-09T22:58:16.207Z,1.47
2024-05-09T23:00:46.185Z,1.34
2024-05-09T23:03:16.002Z,1.38
2024-05-09T23:05:48.498Z,1.30
2024-05-09T23:08:16.204Z,1.14
2024-05-09T23:10:46.294Z,1.20
2024-05-09T23:13:13.539Z,1.24
2024-05-09T23:15:43.588Z,1.18
2024-05-09T23:18:11.440Z,1.29
2024-05-09T23:20:41.277Z,1.32
2024-05-09T23:23:12.015Z,1.22
2024-05-09T23:25:43.798Z,1.42
2024-05-09T23:28:11.095Z,1.39
2024-05-09T23:30:41.998Z,1.34
2024-05-09T23:33:10.924Z,1.29
2024-05-09T23:35:40.976Z,1.35
2024-05-09T23:38:10.788Z,1.29
2024-05-09T23:40:42.042Z,1.35
2024-05-09T23:43:11.032Z,1.23
2024-05-09T23:45:41.794Z,1.36
2024-05-09T23:48:09.913Z,1.36
2024-05-09T23:50:40.726Z,1.33
2024-05-09T23:53:11.492Z,1.24
2024-05-09T23:55:41.887Z,1.23
2024-05-09T23:58:09.354Z,1.23
